createdAt,value
2023-05-25T00:00:29.096Z,50.84
2023-05-25T00:10:31.710Z,52.28
2023-05-25T00:20:35.579Z,51.70
2023-05-25T00:30:38.147Z,52.41
2023-05-25T00:40:42.263Z,52.73
2023-05-25T00:50:45.697Z,53.24
2023-05-25T01:00:50.430Z,53.32
2023-05-25T01:10:53.765Z,53.82
2023-05-25T01:21:13.015Z,53.26
2023-05-25T01:31:15.937Z,54.05
2023-05-25T01:41:19.687Z,54.87
2023-05-25T01:51:25.745Z,54.91
2023-05-25T02:01:30.382Z,55.59
2023-05-25T02:11:32.909Z,56.09
2023-05-25T02:21:37.686Z,56.08
2023-05-25T02:31:40.169Z,56.14
2023-05-25T02:41:44.048Z,56.58
2023-05-25T02:51:46.466Z,56.73
2023-05-25T03:01:50.502Z,56.63
2023-05-25T03:11:54.008Z,58.16
2023-05-25T03:21:57.759Z,57.65
2023-05-25T03:32:00.285Z,58.06
2023-05-25T03:42:04.403Z,59.22
2023-05-25T03:52:07.164Z,59.77
2023-05-25T04:02:10.948Z,59.70
2023-05-25T04:12:16.080Z,60.31
2023-05-25T04:22:19.864Z,60.82
2023-05-25T04:32:22.297Z,60.59
2023-05-25T04:42:26.971Z,61.37
2023-05-25T04:52:29.438Z,61.40
2023-05-25T05:02:34.990Z,62.10
2023-05-25T05:12:37.411Z,61.37
2023-05-25T05:22:41.173Z,62.85
2023-05-25T05:32:46.044Z,62.97
2023-05-25T05:42:50.984Z,62.72
2023-05-25T05:52:54.318Z,62.19
2023-05-25T06:02:58.193Z,62.63
2023-05-25T06:13:00.851Z,63.55
2023-05-25T06:23:04.667Z,63.82
2023-05-25T06:33:08.541Z,67.08
2023-05-25T06:43:12.432Z,64.20
2023-05-25T06:53:15.185Z,62.00
2023-05-25T07:03:18.943Z,62.57
2023-05-25T07:13:21.365Z,62.41
2023-05-25T07:23:25.256Z,62.39
2023-05-25T07:33:27.676Z,62.79
2023-05-25T07:43:31.604Z,63.27
2023-05-25T07:53:34.045Z,62.41
2023-05-25T08:03:48.799Z,62.79
2023-05-25T08:13:52.385Z,63.52
2023-05-25T08:23:56.480Z,62.65
2023-05-25T08:33:58.941Z,62.03
2023-05-25T08:44:06.363Z,61.27
2023-05-25T08:54:10.292Z,61.15
2023-05-25T09:04:14.895Z,61.42
2023-05-25T09:14:17.849Z,61.60
2023-05-25T09:24:22.632Z,60.65
2023-05-25T09:34:25.357Z,62.07
2023-05-25T09:44:29.311Z,59.92
2023-05-25T09:54:31.856Z,60.74
2023-05-25T10:04:35.930Z,60.01
2023-05-25T10:14:39.047Z,58.25
2023-05-25T10:24:49.143Z,60.34
2023-05-25T10:34:53.331Z,58.82
2023-05-25T10:44:57.405Z,58.87
2023-05-25T10:55:01.673Z,60.82
2023-05-25T11:05:22.902Z,57.49
2023-05-25T11:15:30.952Z,57.31
2023-05-25T11:25:37.473Z,58.34
2023-05-25T11:35:41.570Z,57.50
2023-05-25T11:45:44.338Z,58.76
2023-05-25T11:55:55.576Z,57.14
2023-05-25T12:06:06.421Z,57.96
2023-05-25T12:16:10.394Z,57.96
2023-05-25T12:26:13.741Z,56.85
2023-05-25T12:36:17.532Z,54.95
2023-05-25T12:46:25.021Z,52.17
2023-05-25T12:56:28.841Z,54.67
2023-05-25T13:06:33.981Z,53.08
2023-05-25T13:16:37.744Z,53.28
2023-05-25T13:26:40.192Z,50.48
2023-05-25T13:36:44.001Z,50.10
2023-05-25T13:46:46.832Z,51.84
2023-05-25T13:56:50.677Z,50.64
2023-05-25T14:06:53.113Z,50.09
2023-05-25T14:16:56.876Z,50.16
2023-05-25T14:26:59.309Z,51.91
2023-05-25T14:37:03.077Z,49.85
2023-05-25T14:47:05.932Z,49.11
2023-05-25T14:57:10.270Z,51.64
2023-05-25T15:07:13.148Z,51.08
2023-05-25T15:17:17.364Z,49.73
2023-05-25T15:27:19.876Z,49.38
2023-05-25T15:37:23.605Z,48.65
2023-05-25T15:47:26.077Z,49.19
2023-05-25T15:57:29.896Z,49.34
2023-05-25T16:07:32.578Z,47.82
2023-05-25T16:17:36.440Z,50.04
2023-05-25T16:27:38.896Z,49.89
2023-05-25T16:37:42.905Z,48.49
2023-05-25T16:47:45.342Z,50.44
2023-05-25T16:57:49.115Z,48.96
2023-05-25T17:07:51.648Z,49.50
2023-05-25T17:17:55.542Z,49.55
2023-05-25T17:27:57.994Z,50.26
2023-05-25T17:38:01.752Z,51.45
2023-05-25T17:48:04.317Z,50.80
2023-05-25T17:58:08.144Z,51.21
2023-05-25T18:08:10.767Z,52.41
2023-05-25T18:18:16.405Z,53.67
2023-05-25T18:28:18.962Z,55.15
2023-05-25T18:38:22.739Z,55.03
2023-05-25T18:48:25.827Z,54.67
2023-05-25T18:58:29.574Z,56.57
2023-05-25T19:08:32.013Z,55.79
2023-05-25T19:18:35.784Z,56.57
2023-05-25T19:28:38.171Z,57.40
2023-05-25T19:38:42.453Z,58.01
2023-05-25T19:48:44.949Z,58.35
2023-05-25T19:58:48.731Z,57.72
2023-05-25T20:08:51.140Z,58.29
2023-05-25T20:18:55.493Z,59.20
2023-05-25T20:29:06.753Z,59.43
2023-05-25T20:39:09.535Z,60.28
2023-05-25T20:49:13.535Z,59.69
2023-05-25T20:59:16.041Z,60.66
2023-05-25T21:09:19.919Z,60.84
2023-05-25T21:19:22.369Z,60.70
2023-05-25T21:29:26.283Z,61.20
2023-05-25T21:39:28.784Z,61.64
2023-05-25T21:49:32.615Z,61.66
2023-05-25T21:59:38.937Z,62.42
2023-05-25T22:09:42.765Z,62.89
2023-05-25T22:19:52.112Z,62.79
2023-05-25T22:30:03.139Z,62.42
2023-05-25T22:40:08.956Z,62.76
2023-05-25T22:50:13.413Z,63.24
2023-05-25T23:00:18.937Z,63.42
2023-05-25T23:10:22.760Z,63.04
2023-05-25T23:20:25.345Z,62.83
2023-05-25T23:30:29.143Z,63.16
2023-05-25T23:40:31.664Z,62.44
2023-05-25T23:50:35.881Z,61.86
